Time;durP1;ratioP1;P1;durP2;ratioP2;P2;SDS_P1;SDS_P2;PMS_P1;PMS_P2;Temp;Humidity;BMP_temperature;BMP_pressure;BME280_temperature;BME280_humidity;BME280_pressure;Samples;Min_cycle;Max_cycle;Signal;HPM_P1;HPM_P2
2023/10/05 00:03:44;;;;;;;3.10;2.50;;;12.60;99.90;;;;;;5016176;28;20445;-70
2023/10/05 00:06:27;;;;;;;3.10;2.47;;;12.60;99.90;;;;;;5015737;28;20417;-70
2023/10/05 00:08:55;;;;;;;5.17;3.20;;;12.60;99.90;;;;;;5015828;28;20805;-70
2023/10/05 00:11:23;;;;;;;2.53;2.00;;;12.50;99.90;;;;;;5015674;28;20430;-70
2023/10/05 00:14:10;;;;;;;3.73;2.60;;;12.30;99.90;;;;;;5015801;28;20467;-70
2023/10/05 00:16:36;;;;;;;4.70;2.43;;;12.30;99.90;;;;;;5015968;28;20537;-70
2023/10/05 00:19:11;;;;;;;2.90;1.90;;;12.30;99.90;;;;;;5014218;28;20413;-70
2023/10/05 00:21:40;;;;;;;5.77;2.33;;;12.30;99.90;;;;;;5015728;28;20438;-70
2023/10/05 00:24:11;;;;;;;5.40;2.27;;;12.30;99.90;;;;;;5015458;28;20932;-70
2023/10/05 00:26:36;;;;;;;3.00;2.10;;;12.40;99.90;;;;;;5015562;28;20396;-70
2023/10/05 00:29:18;;;;;;;3.00;2.10;;;12.40;99.90;;;;;;5015513;28;20845;-70
2023/10/05 00:31:47;;;;;;;4.20;2.50;;;12.40;99.90;;;;;;5015791;28;20508;-70
2023/10/05 00:34:21;;;;;;;3.97;2.37;;;12.40;99.90;;;;;;5015307;28;20804;-71
2023/10/05 00:36:50;;;;;;;5.57;2.10;;;12.40;99.90;;;;;;5015885;28;20864;-70
2023/10/05 00:39:19;;;;;;;3.20;1.97;;;12.50;99.90;;;;;;5015699;28;20411;-71
2023/10/05 00:41:57;;;;;;;4.33;2.20;;;12.40;99.90;;;;;;5015531;28;20826;-69
2023/10/05 00:44:23;;;;;;;3.30;1.90;;;12.40;99.90;;;;;;5014677;28;20435;-70
2023/10/05 00:46:49;;;;;;;4.53;2.50;;;12.40;99.90;;;;;;5015377;28;20414;-70
2023/10/05 00:49:29;;;;;;;3.50;2.00;;;12.30;99.90;;;;;;5013733;28;20242;-70
2023/10/05 00:52:07;;;;;;;5.77;2.20;;;12.40;99.90;;;;;;5015202;28;20419;-70
2023/10/05 00:54:34;;;;;;;3.27;2.00;;;12.40;99.90;;;;;;5014221;28;20520;-71
2023/10/05 00:57:05;;;;;;;3.30;2.00;;;12.40;99.90;;;;;;5014852;28;20402;-69
2023/10/05 00:59:32;;;;;;;3.80;1.90;;;12.40;99.90;;;;;;5015104;28;20414;-70
2023/10/05 01:04:34;;;;;;;2.67;2.10;;;12.40;99.90;;;;;;5014886;28;20435;-71
2023/10/05 01:07:17;;;;;;;6.33;2.00;;;12.30;99.90;;;;;;5014962;28;20387;-70
2023/10/05 01:14:56;;;;;;;3.40;1.87;;;12.40;99.90;;;;;;5015154;28;20448;-69
2023/10/05 01:17:25;;;;;;;3.87;2.43;;;12.50;99.90;;;;;;5015224;28;20945;-70
2023/10/05 01:19:58;;;;;;;6.10;2.57;;;12.50;99.90;;;;;;5014739;28;20407;-70
2023/10/05 01:22:33;;;;;;;3.03;2.00;;;12.40;99.90;;;;;;5014269;28;20918;-71
2023/10/05 01:25:01;;;;;;;4.13;2.17;;;12.50;99.90;;;;;;5014334;28;20393;-70
2023/10/05 01:27:29;;;;;;;4.77;2.27;;;12.50;99.90;;;;;;5014651;28;20413;-70
2023/10/05 01:29:56;;;;;;;4.60;1.50;;;12.40;99.90;;;;;;5015073;28;20406;-70
2023/10/05 01:32:22;;;;;;;3.90;2.30;;;12.30;99.90;;;;;;5013805;28;20444;-71
2023/10/05 01:34:50;;;;;;;5.90;1.70;;;12.40;99.90;;;;;;5014368;28;20444;-71
2023/10/05 01:37:22;;;;;;;4.47;2.07;;;12.30;99.90;;;;;;5014150;28;20456;-70
2023/10/05 01:39:49;;;;;;;4.70;2.33;;;12.40;99.90;;;;;;5014419;28;20379;-70
2023/10/05 01:42:16;;;;;;;3.10;2.20;;;12.40;99.90;;;;;;5013998;28;20425;-71
2023/10/05 01:44:46;;;;;;;5.93;2.00;;;12.40;99.90;;;;;;5014261;28;20408;-71
2023/10/05 01:47:14;;;;;;;2.87;2.00;;;12.30;99.90;;;;;;5014673;28;20468;-71
2023/10/05 01:49:41;;;;;;;4.20;1.80;;;12.40;99.90;;;;;;5014255;28;20414;-71
2023/10/05 01:52:07;;;;;;;4.27;2.03;;;12.40;99.90;;;;;;5013919;28;20406;-70
2023/10/05 01:54:34;;;;;;;4.70;2.60;;;12.40;99.90;;;;;;5013723;28;20461;-72
2023/10/05 01:57:01;;;;;;;6.10;2.70;;;12.40;99.90;;;;;;5012909;28;20459;-70
2023/10/05 01:59:28;;;;;;;3.53;2.07;;;12.30;99.90;;;;;;5014033;28;20403;-71
2023/10/05 02:01:54;;;;;;;4.20;2.00;;;12.30;99.90;;;;;;5013613;28;20403;-69
2023/10/05 02:04:22;;;;;;;2.33;1.70;;;12.30;99.90;;;;;;5013561;28;20434;-71
2023/10/05 02:06:49;;;;;;;3.90;1.90;;;12.30;99.90;;;;;;5013907;28;20210;-69
2023/10/05 02:09:19;;;;;;;3.10;1.90;;;12.30;99.90;;;;;;5013820;28;20410;-69
2023/10/05 02:11:47;;;;;;;5.57;2.73;;;12.20;99.90;;;;;;5013755;28;20403;-69
2023/10/05 02:14:16;;;;;;;3.77;2.07;;;12.30;99.90;;;;;;5014522;28;20858;-71
2023/10/05 02:16:48;;;;;;;3.30;2.03;;;12.20;99.90;;;;;;5013486;28;20403;-71
2023/10/05 02:19:14;;;;;;;3.83;2.30;;;12.20;99.90;;;;;;5013713;28;20399;-70
2023/10/05 02:21:40;;;;;;;4.40;2.13;;;12.20;99.90;;;;;;5013608;28;20954;-70
2023/10/05 02:24:16;;;;;;;3.23;1.47;;;12.10;99.90;;;;;;5013219;28;20431;-70
2023/10/05 02:29:28;;;;;;;3.97;2.20;;;12.10;99.90;;;;;;5014005;28;20405;-71
2023/10/05 02:34:33;;;;;;;2.87;2.23;;;12.10;99.90;;;;;;5013300;28;20453;-69
2023/10/05 02:37:00;;;;;;;4.77;2.20;;;12.00;99.90;;;;;;5013396;28;20391;-71
2023/10/05 02:39:26;;;;;;;2.90;2.20;;;12.00;99.90;;;;;;5013267;28;20407;-71
2023/10/05 02:41:54;;;;;;;3.70;1.83;;;12.00;99.90;;;;;;5013330;28;20425;-70
2023/10/05 02:46:47;;;;;;;2.73;1.77;;;12.00;99.90;;;;;;5013013;28;20434;-69
2023/10/05 02:49:15;;;;;;;6.83;2.10;;;12.00;99.90;;;;;;5013153;28;20399;-70
2023/10/05 02:51:43;;;;;;;2.37;1.93;;;12.10;99.90;;;;;;5012903;28;20403;-70
2023/10/05 02:54:10;;;;;;;5.60;2.10;;;12.10;99.90;;;;;;5013354;28;20827;-70
2023/10/05 02:56:36;;;;;;;3.23;2.00;;;12.00;99.90;;;;;;5012868;28;20398;-70
2023/10/05 02:59:03;;;;;;;5.10;2.23;;;12.00;99.90;;;;;;5012500;28;20438;-71
2023/10/05 03:01:32;;;;;;;3.73;2.37;;;12.10;99.90;;;;;;5011666;28;20403;-70
2023/10/05 03:04:21;;;;;;;4.73;2.10;;;12.10;99.90;;;;;;5013072;28;20432;-71
2023/10/05 03:06:52;;;;;;;4.10;2.17;;;12.10;99.90;;;;;;5012733;28;20397;-70
2023/10/05 03:09:21;;;;;;;3.03;1.90;;;12.10;99.90;;;;;;5015152;28;20415;-71
2023/10/05 03:11:47;;;;;;;4.60;2.40;;;12.20;99.90;;;;;;5017389;28;20583;-70
2023/10/05 03:14:17;;;;;;;3.07;2.20;;;12.20;99.90;;;;;;5015383;28;20465;-70
2023/10/05 03:16:48;;;;;;;4.70;2.30;;;12.20;99.90;;;;;;5016689;28;20403;-71
2023/10/05 03:19:20;;;;;;;3.93;2.07;;;12.20;99.90;;;;;;5016661;28;20425;-70
2023/10/05 03:21:50;;;;;;;3.20;2.43;;;12.30;99.90;;;;;;5016865;28;20406;-69
2023/10/05 03:24:19;;;;;;;3.13;1.97;;;12.30;99.90;;;;;;5016504;28;20434;-70
2023/10/05 03:26:47;;;;;;;3.37;1.80;;;12.30;99.90;;;;;;5016595;28;20816;-68
2023/10/05 03:29:13;;;;;;;7.63;2.23;;;12.20;99.90;;;;;;5016578;28;20407;-70
2023/10/05 03:31:53;;;;;;;3.43;2.30;;;12.20;99.90;;;;;;5016599;28;20417;-70
2023/10/05 03:34:20;;;;;;;1.90;1.70;;;12.30;99.90;;;;;;5016042;28;20460;-70
2023/10/05 03:36:47;;;;;;;4.50;1.93;;;12.30;99.90;;;;;;5016479;28;20450;-69
2023/10/05 03:39:14;;;;;;;4.10;2.30;;;12.30;99.90;;;;;;5016319;28;20769;-69
2023/10/05 03:41:39;;;;;;;4.07;2.23;;;12.30;99.90;;;;;;5016520;28;20414;-69
2023/10/05 03:44:07;;;;;;;3.20;2.10;;;12.30;99.90;;;;;;5016262;28;20418;-70
2023/10/05 03:46:34;;;;;;;3.23;2.17;;;12.40;99.90;;;;;;5016182;28;20175;-70
2023/10/05 03:49:01;;;;;;;3.30;2.23;;;12.30;99.90;;;;;;5016115;28;20416;-69
2023/10/05 03:51:30;;;;;;;3.63;2.30;;;12.30;99.90;;;;;;5016127;28;20399;-70
2023/10/05 03:53:56;;;;;;;4.53;2.07;;;12.30;99.90;;;;;;5015803;28;21003;-70
2023/10/05 03:56:25;;;;;;;3.97;2.60;;;12.30;99.90;;;;;;5016128;28;20399;-70
2023/10/05 03:58:53;;;;;;;3.50;1.90;;;12.30;99.90;;;;;;5016317;28;20223;-70
2023/10/05 04:01:19;;;;;;;3.33;1.90;;;12.30;99.90;;;;;;5015933;28;20434;-70
2023/10/05 04:03:49;;;;;;;2.87;2.27;;;12.30;99.90;;;;;;5016093;28;20426;-69
2023/10/05 04:06:19;;;;;;;5.10;2.50;;;12.40;99.90;;;;;;5016385;28;20496;-69
2023/10/05 04:08:49;;;;;;;4.00;2.10;;;12.40;99.90;;;;;;5015824;28;20871;-69
2023/10/05 04:11:17;;;;;;;5.03;2.90;;;12.40;99.90;;;;;;5014349;28;20396;-70
2023/10/05 04:13:43;;;;;;;3.67;2.20;;;12.30;99.90;;;;;;5015817;28;20832;-70
2023/10/05 04:16:12;;;;;;;2.63;2.07;;;12.40;99.90;;;;;;5016025;28;20402;-70
2023/10/05 04:18:38;;;;;;;4.73;2.40;;;12.40;99.90;;;;;;5015325;28;20815;-70
2023/10/05 04:21:06;;;;;;;4.57;2.40;;;12.40;99.90;;;;;;5014981;28;20399;-70
2023/10/05 04:23:32;;;;;;;3.10;2.40;;;12.40;99.90;;;;;;5015754;28;20441;-70
2023/10/05 04:25:57;;;;;;;3.80;1.93;;;12.50;99.90;;;;;;5015799;28;20406;-69
2023/10/05 04:28:39;;;;;;;4.70;2.07;;;12.40;99.90;;;;;;5015363;28;20410;-70
2023/10/05 04:31:11;;;;;;;4.87;2.23;;;12.40;99.90;;;;;;5015302;28;20174;-70
2023/10/05 04:33:39;;;;;;;3.33;2.17;;;12.40;99.90;;;;;;5015647;28;20873;-70
2023/10/05 04:36:05;;;;;;;4.53;2.00;;;12.30;99.90;;;;;;5015257;28;20441;-70
2023/10/05 04:38:32;;;;;;;2.93;1.90;;;12.30;99.90;;;;;;5015107;28;20409;-69
2023/10/05 04:40:58;;;;;;;5.03;2.60;;;12.30;99.90;;;;;;5010609;28;20443;-69
2023/10/05 04:43:24;;;;;;;3.50;2.23;;;12.30;99.90;;;;;;5015097;28;20423;-69
2023/10/05 04:45:51;;;;;;;4.50;2.10;;;12.40;99.90;;;;;;5015074;28;20925;-69
2023/10/05 04:48:18;;;;;;;4.13;2.40;;;12.40;99.90;;;;;;5015297;28;20183;-71
2023/10/05 04:50:46;;;;;;;4.37;2.40;;;12.40;99.90;;;;;;5013813;28;20467;-70
2023/10/05 04:53:14;;;;;;;8.40;2.50;;;12.40;99.90;;;;;;5014983;28;20831;-73
2023/10/05 04:55:43;;;;;;;3.87;2.27;;;12.30;99.90;;;;;;5015344;28;20913;-73
2023/10/05 04:58:21;;;;;;;3.57;2.00;;;12.30;99.90;;;;;;5013475;28;20421;-73
2023/10/05 05:06:11;;;;;;;5.20;3.00;;;12.40;99.90;;;;;;5015011;28;20157;-72
2023/10/05 05:08:40;;;;;;;10.47;2.17;;;12.40;99.90;;;;;;5015187;28;20869;-73
2023/10/05 05:11:26;;;;;;;4.60;2.23;;;12.40;99.90;;;;;;5014130;28;20908;-72
2023/10/05 05:13:51;;;;;;;4.10;2.10;;;12.40;99.90;;;;;;5014728;28;20443;-72
2023/10/05 05:16:17;;;;;;;5.83;2.20;;;12.40;99.90;;;;;;5014506;28;20400;-73
2023/10/05 05:18:43;;;;;;;5.43;2.80;;;12.20;99.90;;;;;;5014401;28;20170;-73
2023/10/05 05:21:12;;;;;;;5.60;2.90;;;12.10;99.90;;;;;;5014574;28;20226;-73
2023/10/05 05:23:39;;;;;;;6.10;2.60;;;12.00;99.90;;;;;;5013066;28;20791;-73
2023/10/05 05:26:08;;;;;;;3.83;2.50;;;12.00;99.90;;;;;;5014473;28;20414;-73
2023/10/05 05:28:34;;;;;;;3.70;2.33;;;11.90;99.90;;;;;;5014133;28;20411;-73
2023/10/05 05:31:16;;;;;;;4.80;2.13;;;12.00;99.90;;;;;;5013075;28;20403;-73
2023/10/05 05:33:44;;;;;;;6.33;2.97;;;12.10;99.90;;;;;;5013961;28;20450;-73
2023/10/05 05:36:13;;;;;;;7.03;3.17;;;12.00;99.90;;;;;;5012913;28;20426;-72
2023/10/05 05:38:39;;;;;;;4.20;2.60;;;12.00;99.90;;;;;;5014162;28;20407;-73
2023/10/05 05:41:19;;;;;;;4.03;2.43;;;11.90;99.90;;;;;;5013984;28;20482;-72
2023/10/05 05:43:45;;;;;;;3.43;2.57;;;11.90;99.90;;;;;;5012631;28;20427;-72
2023/10/05 05:46:14;;;;;;;3.80;2.43;;;12.00;99.90;;;;;;5013985;28;20413;-73
2023/10/05 05:48:44;;;;;;;4.10;2.60;;;12.00;99.90;;;;;;5014457;28;20411;-72
2023/10/05 05:51:23;;;;;;;5.90;2.47;;;12.00;99.90;;;;;;5014113;28;20409;-73
2023/10/05 05:53:49;;;;;;;3.90;2.57;;;12.10;99.90;;;;;;5013773;28;20469;-73
2023/10/05 05:56:18;;;;;;;4.60;3.00;;;12.20;99.90;;;;;;5012736;28;20471;-73
2023/10/05 05:58:45;;;;;;;5.80;2.60;;;12.40;99.90;;;;;;5014271;28;20168;-72
2023/10/05 06:01:14;;;;;;;5.90;3.40;;;12.40;99.90;;;;;;5012458;28;20439;-73
2023/10/05 06:03:43;;;;;;;10.53;6.53;;;12.30;99.90;;;;;;5014129;28;20457;-73
2023/10/05 06:06:08;;;;;;;3.57;2.20;;;12.20;99.90;;;;;;5014194;28;20803;-72
2023/10/05 06:08:35;;;;;;;6.90;2.90;;;12.20;99.90;;;;;;5013992;28;20417;-73
2023/10/05 06:11:06;;;;;;;4.20;2.83;;;12.20;99.90;;;;;;5014101;28;20252;-73
2023/10/05 06:13:36;;;;;;;3.10;2.43;;;12.20;99.90;;;;;;5012735;28;20895;-72
2023/10/05 06:16:03;;;;;;;5.23;2.60;;;12.20;99.90;;;;;;5013888;28;20436;-72
2023/10/05 06:18:31;;;;;;;3.30;2.73;;;12.40;99.90;;;;;;5013971;28;20411;-73
2023/10/05 06:20:56;;;;;;;9.43;2.93;;;12.50;99.90;;;;;;5014156;28;20465;-72
2023/10/05 06:23:22;;;;;;;5.33;2.90;;;12.50;99.90;;;;;;5012289;28;20463;-73
2023/10/05 06:25:48;;;;;;;7.83;3.60;;;12.60;99.90;;;;;;5013587;28;20218;-73
2023/10/05 06:28:14;;;;;;;7.57;3.37;;;12.80;99.90;;;;;;5015291;28;20169;-73
2023/10/05 06:30:39;;;;;;;6.30;3.37;;;12.90;99.90;;;;;;5015059;28;20200;-74
2023/10/05 06:33:07;;;;;;;12.00;4.20;;;12.90;99.90;;;;;;5013891;28;20821;-72
2023/10/05 06:35:33;;;;;;;6.07;2.60;;;13.00;99.90;;;;;;5014120;28;20688;-71
2023/10/05 06:37:59;;;;;;;4.87;3.50;;;13.00;99.90;;;;;;5013739;28;20410;-71
2023/10/05 06:40:25;;;;;;;9.67;3.87;;;13.00;99.90;;;;;;5013341;28;20175;-72
2023/10/05 06:42:51;;;;;;;7.90;3.60;;;13.00;99.90;;;;;;5015833;28;20197;-73
2023/10/05 06:45:19;;;;;;;5.83;3.50;;;12.90;99.90;;;;;;5020030;28;20420;-71
2023/10/05 06:47:45;;;;;;;4.03;3.10;;;13.10;99.90;;;;;;5019871;28;20402;-70
2023/10/05 06:50:11;;;;;;;6.23;3.67;;;13.20;99.90;;;;;;5019417;28;20918;-71
2023/10/05 06:52:46;;;;;;;4.40;2.97;;;13.20;99.90;;;;;;5019309;28;20548;-71
2023/10/05 06:55:21;;;;;;;3.97;3.20;;;13.20;99.90;;;;;;5019661;28;20451;-71
2023/10/05 06:57:49;;;;;;;5.10;3.47;;;13.30;99.90;;;;;;5019312;28;20410;-71
2023/10/05 07:00:22;;;;;;;6.30;3.90;;;13.30;99.90;;;;;;5019441;28;20415;-73
2023/10/05 07:02:58;;;;;;;8.17;4.10;;;13.40;99.90;;;;;;5019363;28;20426;-73
2023/10/05 07:05:25;;;;;;;8.63;3.70;;;13.50;99.90;;;;;;5019597;28;20395;-76
2023/10/05 07:07:50;;;;;;;10.30;4.20;;;13.60;99.90;;;;;;5019725;28;20547;-75
2023/10/05 07:10:16;;;;;;;5.23;3.87;;;13.60;99.90;;;;;;5019494;28;20482;-76
2023/10/05 07:12:46;;;;;;;4.30;3.27;;;13.70;99.90;;;;;;5019209;28;20284;-76
2023/10/05 07:15:13;;;;;;;9.33;4.13;;;13.80;99.90;;;;;;5019335;28;20482;-73
2023/10/05 07:17:39;;;;;;;3.50;3.20;;;14.00;99.90;;;;;;5018907;28;20418;-71
2023/10/05 07:20:12;;;;;;;8.40;3.83;;;14.10;99.90;;;;;;5017910;28;20411;-72
2023/10/05 07:22:41;;;;;;;4.90;3.03;;;14.20;99.90;;;;;;5019213;28;20423;-72
2023/10/05 07:25:11;;;;;;;6.07;3.33;;;14.30;99.90;;;;;;5019469;28;20480;-71
2023/10/05 07:27:37;;;;;;;4.30;3.90;;;14.40;99.90;;;;;;5019226;28;20911;-72
2023/10/05 07:30:04;;;;;;;6.93;3.60;;;14.50;99.90;;;;;;5019138;28;20421;-76
2023/10/05 07:32:31;;;;;;;6.47;4.07;;;14.50;99.90;;;;;;5019568;28;20456;-74
2023/10/05 07:34:57;;;;;;;6.67;3.23;;;14.40;99.90;;;;;;5019324;28;20445;-72
2023/10/05 07:37:23;;;;;;;7.93;4.00;;;14.50;99.90;;;;;;5019116;28;20416;-72
2023/10/05 07:39:51;;;;;;;8.03;3.33;;;14.60;99.90;;;;;;5019146;28;20400;-72
2023/10/05 07:42:17;;;;;;;11.00;3.77;;;14.70;99.90;;;;;;5019294;28;20423;-72
2023/10/05 07:44:43;;;;;;;4.17;3.63;;;14.60;99.90;;;;;;5019342;28;20509;-71
2023/10/05 07:47:11;;;;;;;4.70;3.80;;;14.60;99.90;;;;;;5019215;28;20404;-71
2023/10/05 07:49:37;;;;;;;5.57;3.77;;;14.70;99.90;;;;;;5018034;28;20847;-71
2023/10/05 07:52:09;;;;;;;4.87;3.13;;;14.90;99.90;;;;;;5019290;28;20844;-73
2023/10/05 07:54:38;;;;;;;8.40;4.00;;;15.10;99.90;;;;;;5017024;28;20487;-75
2023/10/05 07:57:04;;;;;;;5.80;3.33;;;15.30;99.90;;;;;;5015916;28;20408;-73
2023/10/05 07:59:29;;;;;;;5.67;3.30;;;15.30;99.90;;;;;;5016227;28;20405;-71
2023/10/05 08:01:57;;;;;;;6.40;3.50;;;15.20;99.90;;;;;;5015704;28;20800;-71
2023/10/05 08:04:23;;;;;;;11.40;4.60;;;15.20;99.90;;;;;;5016011;28;20226;-72
2023/10/05 08:06:50;;;;;;;6.00;4.00;;;15.20;99.90;;;;;;5016106;28;20872;-73
2023/10/05 08:09:20;;;;;;;6.57;4.07;;;15.40;99.90;;;;;;5015851;28;20400;-75
2023/10/05 08:11:53;;;;;;;5.87;3.70;;;15.40;99.90;;;;;;5015790;28;20498;-72
2023/10/05 08:14:20;;;;;;;6.30;3.80;;;15.60;99.90;;;;;;5015770;28;20451;-72
2023/10/05 08:16:46;;;;;;;5.70;3.50;;;15.70;99.90;;;;;;5015591;28;20498;-71
2023/10/05 08:19:12;;;;;;;5.03;3.20;;;16.00;99.90;;;;;;5016019;28;20399;-72
2023/10/05 08:21:38;;;;;;;7.33;4.10;;;15.90;99.90;;;;;;5015456;28;20928;-70
2023/10/05 08:24:04;;;;;;;5.20;3.67;;;15.60;99.90;;;;;;5015832;28;20781;-71
2023/10/05 08:26:30;;;;;;;5.37;3.83;;;15.60;99.90;;;;;;5015469;28;20410;-72
2023/10/05 08:28:57;;;;;;;6.53;4.70;;;15.40;99.90;;;;;;5015279;28;20415;-70
2023/10/05 08:31:25;;;;;;;5.43;4.60;;;15.30;99.90;;;;;;5015371;28;20175;-71
2023/10/05 08:33:55;;;;;;;8.00;5.00;;;15.30;99.90;;;;;;5015236;28;20425;-71
2023/10/05 08:36:21;;;;;;;7.47;4.03;;;15.10;99.90;;;;;;5015170;28;20442;-70
2023/10/05 08:38:54;;;;;;;8.60;4.43;;;15.20;99.90;;;;;;5015897;28;20410;-71
2023/10/05 08:41:31;;;;;;;9.03;4.40;;;15.60;99.90;;;;;;5015308;28;20751;-69
2023/10/05 08:44:01;;;;;;;9.20;4.10;;;15.90;99.90;;;;;;5015214;28;20984;-70
2023/10/05 08:46:29;;;;;;;9.50;4.20;;;16.20;99.90;;;;;;5014972;28;20881;-70
2023/10/05 08:48:57;;;;;;;6.17;3.80;;;16.20;99.90;;;;;;5014868;28;20409;-72
2023/10/05 08:51:24;;;;;;;10.20;5.10;;;16.30;99.90;;;;;;5014925;28;20399;-72
2023/10/05 08:53:57;;;;;;;9.30;4.70;;;16.50;99.90;;;;;;5027820;23;20518;-70
2023/10/05 08:56:24;;;;;;;5.53;4.00;;;16.70;99.90;;;;;;4998187;28;20400;-72
2023/10/05 08:58:52;;;;;;;6.93;4.10;;;16.80;99.90;;;;;;4995243;28;20404;-70
2023/10/05 09:01:33;;;;;;;7.90;4.77;;;16.80;99.90;;;;;;4998944;28;20441;-70
2023/10/05 09:04:01;;;;;;;6.60;4.63;;;16.60;99.90;;;;;;5014898;28;20422;-71
2023/10/05 09:06:30;;;;;;;7.80;4.40;;;16.80;99.90;;;;;;5014057;28;20815;-71
2023/10/05 09:11:32;;;;;;;7.90;4.90;;;17.10;99.90;;;;;;5009256;28;20739;-73
2023/10/05 09:14:27;;;;;;;8.47;4.40;;;17.00;99.90;;;;;;4994928;28;20854;-75
2023/10/05 09:17:09;;;;;;;4.70;3.50;;;17.40;99.90;;;;;;4995599;28;20408;-73
2023/10/05 09:19:35;;;;;;;8.93;5.20;;;17.80;99.90;;;;;;4994012;28;20966;-72
2023/10/05 09:24:26;;;;;;;10.90;5.00;;;17.20;99.90;;;;;;5015272;28;20803;-72
2023/10/05 09:26:53;;;;;;;8.40;5.03;;;17.10;99.90;;;;;;5014366;28;20422;-72
2023/10/05 09:29:32;;;;;;;6.23;4.50;;;17.20;99.90;;;;;;5014803;28;20183;-72
2023/10/05 09:31:59;;;;;;;6.53;4.93;;;17.10;99.90;;;;;;5006124;28;20415;-71
2023/10/05 09:34:34;;;;;;;12.10;5.30;;;16.90;99.90;;;;;;4998377;28;20442;-68
2023/10/05 09:37:08;;;;;;;8.43;4.20;;;17.20;99.90;;;;;;5015139;28;20437;-71
2023/10/05 09:39:43;;;;;;;8.60;4.17;;;17.50;99.90;;;;;;5015449;28;20888;-70
2023/10/05 09:42:26;;;;;;;7.83;4.27;;;17.10;99.90;;;;;;5003479;28;20426;-73
2023/10/05 09:44:52;;;;;;;8.30;5.37;;;17.20;99.90;;;;;;4995206;28;20435;-72
2023/10/05 09:47:26;;;;;;;7.67;4.37;;;17.80;99.90;;;;;;4995584;28;20418;-72
2023/10/05 09:49:58;;;;;;;9.37;4.93;;;18.00;99.90;;;;;;4995570;28;20491;-70
2023/10/05 09:52:31;;;;;;;11.70;5.33;;;17.80;99.90;;;;;;5005357;28;20477;-72
2023/10/05 09:54:57;;;;;;;10.77;5.63;;;17.80;99.90;;;;;;5014070;28;20517;-71
2023/10/05 09:57:26;;;;;;;10.30;5.23;;;18.00;99.90;;;;;;5013165;28;20780;-70
2023/10/05 10:00:08;;;;;;;8.13;4.63;;;18.40;99.90;;;;;;5014291;28;20478;-73
2023/10/05 10:02:38;;;;;;;9.63;5.30;;;18.50;99.90;;;;;;4999702;28;20776;-72
2023/10/05 10:05:22;;;;;;;8.33;4.80;;;18.60;99.90;;;;;;4994699;28;20785;-70
2023/10/05 10:07:49;;;;;;;6.60;4.63;;;18.60;99.90;;;;;;4993350;28;20419;-72
2023/10/05 10:10:19;;;;;;;10.07;4.53;;;18.70;99.90;;;;;;4994436;28;20420;-72
2023/10/05 10:12:47;;;;;;;12.57;5.77;;;19.00;99.90;;;;;;5008925;28;20509;-72
2023/10/05 10:15:28;;;;;;;9.57;5.50;;;18.70;99.90;;;;;;5013944;28;20826;-73
2023/10/05 10:18:37;;;;;;;8.40;5.07;;;18.80;99.90;;;;;;5013641;28;20383;-73
2023/10/05 10:20:57;;;;;;;8.37;4.60;;;18.70;99.90;;;;;;5014553;28;20987;-78
2023/10/05 10:23:40;;;;;;;10.10;5.67;;;18.80;99.90;;;;;;4994131;28;20525;-75
2023/10/05 10:26:28;;;;;;;7.30;4.50;;;19.20;99.90;;;;;;4996831;28;20408;-76
2023/10/05 10:31:26;;;;;;;12.80;5.30;;;18.80;99.90;;;;;;5000469;28;20423;-72
2023/10/05 10:33:51;;;;;;;8.67;4.57;;;18.60;99.90;;;;;;5033957;28;20192;-70
2023/10/05 10:36:43;;;;;;;9.33;5.50;;;19.00;99.90;;;;;;5031891;28;20442;-71
2023/10/05 10:39:27;;;;;;;8.27;4.20;;;19.30;99.90;;;;;;5024492;28;20168;-71
2023/10/05 10:42:12;;;;;;;7.83;5.47;;;19.20;99.90;;;;;;5017530;28;20430;-71
2023/10/05 10:47:15;;;;;;;8.53;4.77;;;18.70;99.90;;;;;;5013260;28;20384;-71
2023/10/05 10:49:59;;;;;;;9.07;5.30;;;19.20;99.90;;;;;;5001211;28;20404;-70
2023/10/05 10:52:25;;;;;;;10.07;4.73;;;19.10;99.90;;;;;;5004935;28;20395;-71
2023/10/05 10:54:57;;;;;;;13.00;5.43;;;19.40;99.90;;;;;;5013103;28;20524;-70
2023/10/05 10:57:23;;;;;;;7.23;5.03;;;19.70;99.90;;;;;;5010390;28;20454;-74
2023/10/05 11:00:38;;;;;;;7.27;4.30;;;20.20;99.90;;;;;;5013576;28;20798;-73
2023/10/05 11:02:40;;;;;;;6.70;4.43;;;20.30;99.90;;;;;;4999989;28;20247;-70
2023/10/05 11:05:09;;;;;;;9.57;4.70;;;20.20;99.90;;;;;;4993527;28;20408;-70
2023/10/05 11:07:42;;;;;;;11.67;5.00;;;20.10;99.90;;;;;;4993776;28;20388;-70
2023/10/05 11:10:21;;;;;;;7.27;4.60;;;19.60;99.90;;;;;;4993340;28;20408;-74
2023/10/05 11:12:54;;;;;;;11.70;5.00;;;19.40;99.90;;;;;;5007382;28;20399;-73
2023/10/05 11:15:28;;;;;;;7.70;4.83;;;19.30;99.90;;;;;;5013376;28;20435;-72
2023/10/05 11:17:58;;;;;;;11.63;5.27;;;19.50;99.90;;;;;;5012991;28;20382;-72
2023/10/05 11:20:25;;;;;;;9.60;4.80;;;19.80;99.90;;;;;;5009085;28;20408;-71
2023/10/05 11:22:55;;;;;;;11.30;4.67;;;19.70;99.40;;;;;;5007324;28;20399;-70
2023/10/05 11:25:32;;;;;;;11.93;4.73;;;19.50;99.90;;;;;;5014001;28;20383;-70
2023/10/05 11:27:59;;;;;;;7.00;5.00;;;19.50;99.90;;;;;;5013827;28;20391;-72
2023/10/05 11:30:41;;;;;;;10.77;4.43;;;19.80;99.90;;;;;;5016602;28;20407;-71
2023/10/05 11:33:15;;;;;;;9.80;4.87;;;19.90;99.90;;;;;;5000186;28;20432;-72
2023/10/05 11:35:48;;;;;;;10.10;4.63;;;20.20;99.90;;;;;;4997277;28;20493;-72
2023/10/05 11:38:16;;;;;;;9.27;4.77;;;20.70;99.90;;;;;;4997349;28;20744;-71
2023/10/05 11:40:53;;;;;;;8.30;4.20;;;20.60;99.90;;;;;;4997193;28;20419;-69
2023/10/05 11:43:23;;;;;;;5.90;3.70;;;20.40;99.90;;;;;;5014227;28;20426;-68
2023/10/05 11:48:56;;;;;;;7.67;4.50;;;19.50;99.90;;;;;;5016565;28;20378;-70
2023/10/05 11:51:42;;;;;;;10.10;4.47;;;19.50;99.90;;;;;;5014952;28;20474;-68
2023/10/05 11:54:11;;;;;;;8.53;4.23;;;19.60;99.90;;;;;;4996364;28;20466;-69
2023/10/05 11:56:40;;;;;;;8.10;4.50;;;19.20;99.90;;;;;;4996595;28;20411;-70
2023/10/05 11:59:07;;;;;;;10.90;4.70;;;18.90;99.90;;;;;;4995426;28;20419;-69
2023/10/05 12:01:33;;;;;;;9.27;4.77;;;19.30;99.90;;;;;;4999776;28;20442;-70
2023/10/05 12:03:59;;;;;;;6.27;3.73;;;19.40;99.90;;;;;;5016123;28;20423;-70
2023/10/05 12:06:25;;;;;;;5.47;3.50;;;19.00;99.90;;;;;;5016308;28;20494;-70
2023/10/05 12:08:53;;;;;;;9.60;3.40;;;18.60;99.90;;;;;;5016085;28;20510;-72
2023/10/05 12:11:23;;;;;;;6.70;3.70;;;19.00;99.90;;;;;;5015120;28;20557;-71
2023/10/05 12:13:50;;;;;;;7.70;4.57;;;18.90;99.90;;;;;;4996105;28;20448;-71
2023/10/05 12:16:16;;;;;;;8.93;4.30;;;19.10;99.90;;;;;;4996000;28;20497;-70
2023/10/05 12:18:42;;;;;;;6.87;3.70;;;19.30;99.90;;;;;;4996336;28;20487;-71
2023/10/05 12:21:10;;;;;;;9.40;3.97;;;19.40;99.90;;;;;;4995904;28;20755;-72
2023/10/05 12:23:36;;;;;;;7.67;4.20;;;19.30;99.90;;;;;;5015922;28;20756;-72
2023/10/05 12:26:04;;;;;;;7.70;4.03;;;19.40;99.90;;;;;;5015572;28;20497;-73
2023/10/05 12:28:30;;;;;;;6.80;4.00;;;19.70;99.90;;;;;;5015722;28;20180;-73
2023/10/05 12:30:56;;;;;;;8.47;5.00;;;19.80;99.90;;;;;;5014230;28;20427;-72
2023/10/05 12:33:21;;;;;;;7.50;3.93;;;19.40;99.90;;;;;;4997885;28;20966;-74
2023/10/05 12:35:52;;;;;;;6.77;4.07;;;19.10;99.90;;;;;;4996091;28;20188;-72
2023/10/05 12:38:21;;;;;;;7.60;4.23;;;19.00;99.90;;;;;;4994908;28;20235;-71
2023/10/05 12:40:47;;;;;;;7.00;4.27;;;18.70;99.90;;;;;;4994829;28;20495;-71
2023/10/05 12:43:16;;;;;;;9.57;4.50;;;18.70;99.90;;;;;;5011782;28;20462;-73
2023/10/05 12:45:46;;;;;;;11.30;4.60;;;18.60;99.90;;;;;;5015312;28;20469;-72
2023/10/05 12:48:12;;;;;;;14.43;4.93;;;18.30;99.90;;;;;;5015935;28;20398;-71
2023/10/05 12:50:39;;;;;;;9.50;4.57;;;18.20;99.90;;;;;;5014983;28;20403;-71
2023/10/05 12:53:05;;;;;;;8.77;4.57;;;18.40;99.90;;;;;;5000033;28;20452;-72
2023/10/05 12:55:32;;;;;;;8.50;4.20;;;18.30;99.90;;;;;;4998115;28;20447;-73
2023/10/05 12:57:58;;;;;;;11.00;4.37;;;18.40;99.90;;;;;;4995587;28;20400;-73
2023/10/05 13:00:44;;;;;;;6.20;3.43;;;18.40;99.90;;;;;;4995284;28;20487;-71
2023/10/05 13:03:12;;;;;;;7.10;3.33;;;18.60;99.90;;;;;;4995568;28;20184;-71
2023/10/05 13:05:43;;;;;;;7.53;4.20;;;18.70;99.90;;;;;;4993968;28;20419;-70
2023/10/05 13:08:12;;;;;;;7.47;4.07;;;18.60;99.90;;;;;;4994485;28;20435;-71
2023/10/05 13:10:38;;;;;;;7.10;4.10;;;18.50;99.90;;;;;;4995078;28;20404;-72
2023/10/05 13:13:17;;;;;;;8.27;4.30;;;18.40;99.90;;;;;;5009327;28;20466;-72
2023/10/05 13:15:42;;;;;;;8.33;4.43;;;18.40;99.90;;;;;;5014849;28;20466;-73
2023/10/05 13:18:21;;;;;;;6.97;4.27;;;18.30;99.90;;;;;;5014650;28;20838;-72
2023/10/05 13:20:49;;;;;;;8.73;4.90;;;18.40;99.90;;;;;;5014879;28;20155;-73
2023/10/05 13:23:18;;;;;;;7.57;3.90;;;18.60;99.90;;;;;;4997515;28;20439;-72
2023/10/05 13:25:48;;;;;;;7.73;3.50;;;18.50;99.90;;;;;;4994213;28;20786;-69
2023/10/05 13:28:16;;;;;;;6.97;3.80;;;18.60;99.90;;;;;;4994803;28;20404;-71
2023/10/05 13:30:43;;;;;;;9.23;4.20;;;18.70;99.90;;;;;;4995635;28;20934;-72
2023/10/05 13:33:22;;;;;;;10.33;4.50;;;18.60;99.90;;;;;;4996460;28;20799;-74
2023/10/05 13:35:50;;;;;;;8.27;4.17;;;18.40;99.90;;;;;;4995049;28;20431;-72